Thunder radar more information blitzortung!


Radar de pluja more information rain snow radar


Visita la nostra xarxa de llocs de meteo:

Template documentation
and downloads

And another site



No particular awareness of the weather is required.    There are no Weather-warnings

Pagina Historial Weather Underground text

Diari Resum Juny 20, 2017 Unitats:  Imperial    Mètric   Tant
« Previous Dia
SegĂźent Dia »
Diari Setmana Mensual Anual Personalitzada
  Maxima: Minima: Media:
Temperatura: TemperatureC °F 20.2 °F 27.4 °F
Punt de rosada: DewpointC °F 12.3 °F 15.4 °F
Humitat: Humidity % 34 % 50 %
Wind Speed: WindSpeedKMH mph 0.0 mph 9.1 mph
RĂ fegues de vent: WindSpeedGustKMH mph - -
Vent:- - SW
Pression baro: PressurehPa in 1013.8 in -
Precipitacions: 0.0 in    
Historical Graphs
 
 
Dades de taula per Juny 20, 2017
Temps Temperatura Punt de rosada Pression baro Vent Wind Speed RĂ fegues de vent Humitat Rainfall Rate (Hourly)
TemperatureC °F DewpointC °F PressurehPa in Calm     Humidity % HourlyPrecipMM in
00:00 20.9 °F 17.7 °F 1015.8 in SW 1.6 mph 3.2 mph 82 % 0.0 in
00:04 23.4 °F 17.6 °F 1017.8 in SW 3.7 mph 3.7 mph 70 % 0.0 in
00:10 20.8 °F 17.6 °F 1016.8 in SW 1.6 mph 3.2 mph 82 % 0.0 in
00:20 20.7 °F 17.5 °F 1015.8 in WSW 1.6 mph 3.2 mph 82 % 0.0 in
00:30 20.6 °F 17.4 °F 1015.8 in Calm   3.2 mph 82 % 0.0 in
00:40 20.5 °F 17.3 °F 1015.8 in WSW 1.6 mph 1.6 mph 82 % 0.0 in
00:50 20.4 °F 17.2 °F 1015.8 in Calm   1.6 mph 82 % 0.0 in
01:00 20.3 °F 16.9 °F 1015.8 in SW 1.6 mph 1.6 mph 81 % 0.0 in
01:10 20.3 °F 16.9 °F 1015.8 in SW 1.6 mph 1.6 mph 81 % 0.0 in
01:20 20.4 °F 17.2 °F 1015.8 in SSW 1.6 mph 1.6 mph 82 % 0.0 in
01:30 20.3 °F 17.1 °F 1015.8 in Calm     82 % 0.0 in
01:40 20.2 °F 16.8 °F 1015.8 in SSE 1.6 mph 1.6 mph 81 % 0.0 in
01:50 20.2 °F 16.8 °F 1015.8 in Calm   1.6 mph 81 % 0.0 in
02:10 20.6 °F 17.2 °F 1015.8 in NNE 1.6 mph 3.2 mph 81 % 0.0 in
02:20 20.8 °F 17.4 °F 1015.8 in NE 1.6 mph 1.6 mph 81 % 0.0 in
02:30 20.9 °F 17.5 °F 1015.8 in Calm     81 % 0.0 in
02:40 21.0 °F 17.2 °F 1015.8 in NE 1.6 mph 3.2 mph 79 % 0.0 in
02:50 21.3 °F 17.7 °F 1016.8 in Calm   3.2 mph 80 % 0.0 in
03:00 21.8 °F 18.0 °F 1016.8 in SSE 1.6 mph 1.6 mph 79 % 0.0 in
03:10 21.4 °F 17.4 °F 1016.8 in SE 1.6 mph 4.8 mph 78 % 0.0 in
03:20 21.9 °F 17.9 °F 1016.8 in East 3.2 mph 4.8 mph 78 % 0.0 in
03:30 22.3 °F 18.1 °F 1016.8 in ENE 3.2 mph 3.2 mph 77 % 0.0 in
03:40 22.8 °F 18.3 °F 1016.8 in East 1.6 mph 3.2 mph 76 % 0.0 in
03:50 23.6 °F 18.9 °F 1016.8 in SSW 1.6 mph 3.2 mph 75 % 0.0 in
04:00 24.1 °F 19.2 °F 1016.8 in SW 3.2 mph 3.2 mph 74 % 0.0 in
04:10 24.5 °F 19.6 °F 1016.8 in SW 1.6 mph 8.0 mph 74 % 0.0 in
04:20 24.7 °F 19.8 °F 1017.8 in SW 3.2 mph 6.4 mph 74 % 0.0 in
04:30 25.3 °F 19.9 °F 1017.8 in SW 4.8 mph 8.0 mph 72 % 0.0 in
04:40 25.2 °F 19.8 °F 1017.8 in SW 4.8 mph 8.0 mph 72 % 0.0 in
04:50 25.4 °F 19.8 °F 1017.8 in SW 3.2 mph 12.9 mph 71 % 0.0 in
05:00 25.9 °F 19.3 °F 1017.8 in SSW 11.3 mph 11.3 mph 67 % 0.0 in
05:10 26.4 °F 19.6 °F 1017.8 in SSW 8.0 mph 12.9 mph 66 % 0.0 in
05:20 26.9 °F 19.5 °F 1017.8 in WSW 4.8 mph 9.7 mph 64 % 0.0 in
05:30 27.7 °F 19.5 °F 1017.8 in West 4.8 mph 4.8 mph 61 % 0.0 in
05:40 27.7 °F 18.7 °F 1017.8 in SW 8.0 mph 16.1 mph 58 % 0.0 in
05:50 28.0 °F 18.7 °F 1017.8 in SW 4.8 mph 12.9 mph 57 % 0.0 in
10:56 28.5 °F 18.6 °F 1017.8 in SSE 8.7 mph 9.0 mph 55 % 0.0 in
11:01 28.6 °F 18.1 °F 1017.8 in SW 7.4 mph 7.4 mph 53 % 0.0 in
11:06 29.1 °F 18.2 °F 1017.8 in WSW 16.4 mph 16.4 mph 52 % 0.0 in
11:11 29.0 °F 18.2 °F 1017.8 in SW 14.8 mph 14.8 mph 52 % 0.0 in
11:16 28.9 °F 17.7 °F 1017.8 in SSE 13.0 mph 13.0 mph 51 % 0.0 in
11:21 29.0 °F 17.5 °F 1017.8 in SW 11.1 mph 11.1 mph 50 % 0.0 in
11:26 29.1 °F 17.6 °F 1017.8 in SW 11.1 mph 11.1 mph 50 % 0.0 in
11:31 29.5 °F 18.0 °F 1016.8 in WSW 7.4 mph 7.4 mph 50 % 0.0 in
11:36 29.9 °F 18.3 °F 1016.8 in SW 10.0 mph 10.0 mph 50 % 0.0 in
11:41 29.4 °F 17.6 °F 1016.8 in SW 14.8 mph 14.8 mph 49 % 0.0 in
11:46 29.9 °F 18.1 °F 1016.8 in WSW 10.3 mph 10.3 mph 49 % 0.0 in
11:51 30.1 °F 18.2 °F 1016.8 in SSW 11.1 mph 11.1 mph 49 % 0.0 in
11:56 30.0 °F 17.8 °F 1016.8 in SW 13.0 mph 13.0 mph 48 % 0.0 in
12:01 30.0 °F 17.8 °F 1017.8 in West 9.3 mph 9.3 mph 48 % 0.0 in
12:06 30.1 °F 17.6 °F 1017.8 in WSW 16.4 mph 16.4 mph 47 % 0.0 in
12:11 30.0 °F 17.4 °F 1017.8 in SW 13.0 mph 13.0 mph 47 % 0.0 in
12:16 30.6 °F 18.0 °F 1016.8 in South 14.8 mph 14.8 mph 47 % 0.0 in
12:21 30.5 °F 17.6 °F 1016.8 in West 14.8 mph 14.8 mph 46 % 0.0 in
12:26 30.4 °F 17.5 °F 1016.8 in SW 11.1 mph 11.1 mph 46 % 0.0 in
12:31 30.8 °F 17.8 °F 1016.8 in SSW 9.3 mph 9.3 mph 46 % 0.0 in
12:36 30.4 °F 17.1 °F 1016.8 in SSW 18.5 mph 18.5 mph 45 % 0.0 in
12:41 31.1 °F 17.8 °F 1016.8 in SW 9.3 mph 9.3 mph 45 % 0.0 in
12:46 31.4 °F 17.7 °F 1016.8 in SW 9.3 mph 9.3 mph 44 % 0.0 in
12:51 31.7 °F 17.6 °F 1016.8 in SSW 9.3 mph 9.3 mph 43 % 0.0 in
12:56 31.2 °F 16.8 °F 1016.8 in South 14.8 mph 14.8 mph 42 % 0.0 in
13:01 31.2 °F 17.1 °F 1016.8 in SW 14.8 mph 14.8 mph 43 % 0.0 in
13:06 32.2 °F 18.1 °F 1016.8 in SW 9.3 mph 9.3 mph 43 % 0.0 in
13:11 31.9 °F 17.4 °F 1016.8 in South 13.0 mph 13.0 mph 42 % 0.0 in
13:16 32.2 °F 17.7 °F 1015.8 in SW 9.3 mph 9.3 mph 42 % 0.0 in
13:21 32.1 °F 17.2 °F 1015.8 in WSW 13.0 mph 13.0 mph 41 % 0.0 in
13:26 31.5 °F 16.3 °F 1015.8 in SW 11.1 mph 11.1 mph 40 % 0.0 in
13:31 32.0 °F 16.7 °F 1015.8 in SSE 11.1 mph 11.1 mph 40 % 0.0 in
13:36 32.0 °F 16.7 °F 1015.8 in SW 10.0 mph 10.0 mph 40 % 0.0 in
13:41 31.6 °F 16.3 °F 1015.8 in ESE 14.8 mph 14.8 mph 40 % 0.0 in
13:46 31.8 °F 16.6 °F 1015.8 in South 7.9 mph 7.9 mph 40 % 0.0 in
13:51 32.4 °F 17.1 °F 1015.8 in SSW 13.0 mph 13.0 mph 40 % 0.0 in
13:56 31.9 °F 15.8 °F 1015.8 in SSW 19.8 mph 19.8 mph 38 % 0.0 in
14:01 31.9 °F 15.8 °F 1015.8 in SSW 17.5 mph 17.5 mph 38 % 0.0 in
14:06 32.0 °F 15.9 °F 1015.8 in SW 13.0 mph 13.0 mph 38 % 0.0 in
14:11 32.6 °F 16.4 °F 1015.8 in SW 9.3 mph 9.3 mph 38 % 0.0 in
14:16 32.7 °F 16.5 °F 1014.8 in SW 9.3 mph 9.3 mph 38 % 0.0 in
14:21 31.9 °F 15.4 °F 1014.8 in SW 18.5 mph 18.5 mph 37 % 0.0 in
14:26 32.2 °F 15.7 °F 1014.8 in SW 14.8 mph 14.8 mph 37 % 0.0 in
14:31 32.1 °F 15.6 °F 1014.8 in SSE 16.7 mph 16.7 mph 37 % 0.0 in
14:36 32.4 °F 15.8 °F 1014.8 in SE 16.7 mph 16.7 mph 37 % 0.0 in
14:41 32.5 °F 16.3 °F 1014.8 in SSW 18.5 mph 18.5 mph 38 % 0.0 in
14:46 32.8 °F 16.6 °F 1014.8 in South 11.4 mph 11.4 mph 38 % 0.0 in
14:51 32.8 °F 16.2 °F 1014.8 in SW 9.3 mph 9.3 mph 37 % 0.0 in
14:56 32.6 °F 16.0 °F 1014.8 in SSW 13.0 mph 13.0 mph 37 % 0.0 in
15:01 32.2 °F 15.7 °F 1015.8 in SSW 11.1 mph 11.1 mph 37 % 0.0 in
15:06 32.3 °F 15.8 °F 1015.8 in SSW 13.0 mph 13.0 mph 37 % 0.0 in
15:11 32.1 °F 15.6 °F 1015.8 in SW 11.1 mph 11.1 mph 37 % 0.0 in
15:16 32.3 °F 15.8 °F 1015.8 in West 13.0 mph 13.0 mph 37 % 0.0 in
15:21 32.7 °F 16.1 °F 1015.8 in South 18.5 mph 18.5 mph 37 % 0.0 in
15:26 32.4 °F 15.8 °F 1015.8 in SSW 13.0 mph 13.0 mph 37 % 0.0 in
15:31 32.5 °F 15.9 °F 1015.8 in SW 17.2 mph 17.2 mph 37 % 0.0 in
15:36 32.4 °F 15.4 °F 1015.8 in South 20.4 mph 20.4 mph 36 % 0.0 in
15:41 32.6 °F 15.6 °F 1015.8 in SSW 20.9 mph 20.9 mph 36 % 0.0 in
15:46 32.2 °F 14.8 °F 1015.8 in SW 24.1 mph 24.1 mph 35 % 0.0 in
15:51 32.8 °F 15.3 °F 1015.8 in WSW 11.1 mph 11.1 mph 35 % 0.0 in
15:56 32.7 °F 15.7 °F 1015.8 in South 9.3 mph 9.3 mph 36 % 0.0 in
16:01 32.7 °F 15.2 °F 1015.8 in SSE 14.8 mph 14.8 mph 35 % 0.0 in
16:06 32.2 °F 14.3 °F 1015.8 in SW 16.1 mph 16.1 mph 34 % 0.0 in
16:11 32.1 °F 14.7 °F 1015.8 in SW 16.7 mph 16.7 mph 35 % 0.0 in
16:16 32.4 °F 15.0 °F 1015.8 in West 15.1 mph 15.1 mph 35 % 0.0 in
16:21 32.5 °F 15.5 °F 1015.8 in SW 13.0 mph 13.0 mph 36 % 0.0 in
16:26 32.3 °F 14.9 °F 1015.8 in SW 14.8 mph 14.8 mph 35 % 0.0 in
16:31 32.2 °F 14.3 °F 1014.8 in SSW 22.2 mph 22.2 mph 34 % 0.0 in
16:36 32.4 °F 15.0 °F 1014.8 in SSW 9.3 mph 9.3 mph 35 % 0.0 in
16:41 32.1 °F 14.3 °F 1014.8 in SW 16.7 mph 16.7 mph 34 % 0.0 in
16:46 31.8 °F 14.4 °F 1014.8 in SW 20.4 mph 20.4 mph 35 % 0.0 in
16:51 32.1 °F 14.3 °F 1014.8 in SW 12.6 mph 12.6 mph 34 % 0.0 in
16:56 31.8 °F 14.4 °F 1014.8 in SSW 16.7 mph 16.7 mph 35 % 0.0 in
17:01 31.8 °F 14.4 °F 1014.8 in South 11.1 mph 11.1 mph 35 % 0.0 in
17:11 31.9 °F 14.6 °F 1014.8 in SW 11.1 mph 11.1 mph 35 % 0.0 in
17:16 31.7 °F 13.9 °F 1014.8 in WSW 18.5 mph 18.5 mph 34 % 0.0 in
17:21 31.7 °F 14.3 °F 1014.8 in West 9.3 mph 9.3 mph 35 % 0.0 in
17:26 31.7 °F 14.3 °F 1014.8 in SW 9.3 mph 9.3 mph 35 % 0.0 in
17:28 31.6 °F 14.3 °F 1014.8 in SW 14.8 mph 14.8 mph 35 % 0.0 in
17:33 31.7 °F 14.3 °F 1014.8 in South 9.3 mph 9.3 mph 35 % 0.0 in
17:38 31.5 °F 14.2 °F 1014.8 in SSW 14.8 mph 14.8 mph 35 % 0.0 in
17:43 31.3 °F 13.6 °F 1014.8 in SW 20.1 mph 20.1 mph 34 % 0.0 in
17:48 31.5 °F 13.7 °F 1014.8 in SW 15.6 mph 15.6 mph 34 % 0.0 in
17:53 31.3 °F 14.0 °F 1014.8 in SSW 13.0 mph 13.0 mph 35 % 0.0 in
17:58 31.5 °F 14.2 °F 1014.8 in SW 13.0 mph 13.0 mph 35 % 0.0 in
18:03 31.1 °F 13.8 °F 1014.8 in SSW 14.8 mph 14.8 mph 35 % 0.0 in
18:08 31.4 °F 14.1 °F 1014.8 in SW 13.0 mph 13.0 mph 35 % 0.0 in
18:13 31.4 °F 14.1 °F 1014.8 in SSW 15.1 mph 15.1 mph 35 % 0.0 in
18:18 31.1 °F 13.8 °F 1014.8 in SSW 18.5 mph 18.5 mph 35 % 0.0 in
18:23 30.9 °F 14.1 °F 1014.8 in WSW 13.0 mph 13.0 mph 36 % 0.0 in
18:24 30.9 °F 14.1 °F 1014.8 in WSW 13.0 mph 13.0 mph 36 % 0.0 in
18:29 30.8 °F 14.0 °F 1014.8 in SW 9.3 mph 9.3 mph 36 % 0.0 in
18:34 30.7 °F 13.9 °F 1014.8 in SSW 9.3 mph 9.3 mph 36 % 0.0 in
18:39 30.7 °F 14.3 °F 1014.8 in SSW 12.2 mph 12.2 mph 37 % 0.0 in
18:44 30.5 °F 14.2 °F 1014.8 in SW 5.6 mph 8.7 mph 37 % 0.0 in
18:49 30.5 °F 14.2 °F 1014.8 in SSW 13.0 mph 13.0 mph 37 % 0.0 in
18:54 30.3 °F 14.0 °F 1014.8 in SSW 16.7 mph 16.7 mph 37 % 0.0 in
18:59 30.2 °F 13.9 °F 1014.8 in SSW 11.4 mph 11.4 mph 37 % 0.0 in
19:04 30.0 °F 13.7 °F 1014.8 in WSW 16.9 mph 16.9 mph 37 % 0.0 in
19:09 29.6 °F 13.4 °F 1014.8 in SW 14.8 mph 14.8 mph 37 % 0.0 in
19:14 29.6 °F 13.4 °F 1014.8 in SW 16.7 mph 16.7 mph 37 % 0.0 in
19:19 29.3 °F 13.1 °F 1014.8 in SW 16.7 mph 16.7 mph 37 % 0.0 in
19:20 23.3 °F 14.8 °F 1015.8 in WSW 3.2 mph 4.8 mph 59 % 0.0 in
19:24 29.1 °F 12.9 °F 1014.8 in SW 13.0 mph 13.0 mph 37 % 0.0 in
19:29 29.0 °F 12.8 °F 1014.8 in WSW 11.4 mph 11.4 mph 37 % 0.0 in
19:30 23.2 °F 15.0 °F 1015.8 in SW 4.8 mph 6.4 mph 60 % 0.0 in
19:34 28.8 °F 13.4 °F 1014.8 in West 18.5 mph 18.5 mph 39 % 0.0 in
19:39 28.7 °F 13.4 °F 1014.8 in SW 13.0 mph 13.0 mph 39 % 0.0 in
19:40 23.1 °F 15.2 °F 1015.8 in SW 4.8 mph 4.8 mph 61 % 0.0 in
19:44 28.6 °F 13.3 °F 1014.8 in SSW 9.3 mph 9.3 mph 39 % 0.0 in
19:49 28.5 °F 13.2 °F 1014.8 in SW 16.7 mph 16.7 mph 39 % 0.0 in
19:50 23.0 °F 15.1 °F 1015.8 in SW 4.8 mph 4.8 mph 61 % 0.0 in
19:54 28.5 °F 13.2 °F 1014.8 in SSW 7.4 mph 7.4 mph 39 % 0.0 in
19:59 28.4 °F 13.1 °F 1014.8 in WSW 9.3 mph 10.0 mph 39 % 0.0 in
20:00 22.9 °F 15.2 °F 1015.8 in WSW 3.2 mph 4.8 mph 62 % 0.0 in
20:04 28.2 °F 12.9 °F 1014.8 in South 20.4 mph 20.4 mph 39 % 0.0 in
20:09 28.1 °F 12.8 °F 1014.8 in WSW 13.0 mph 13.0 mph 39 % 0.0 in
20:10 22.8 °F 15.4 °F 1015.8 in WSW 3.2 mph 4.8 mph 63 % 0.0 in
20:14 27.9 °F 12.7 °F 1014.8 in SSE 13.7 mph 13.7 mph 39 % 0.0 in
20:19 27.8 °F 12.9 °F 1014.8 in SW 11.1 mph 11.1 mph 40 % 0.0 in
20:20 22.7 °F 15.3 °F 1015.8 in WSW 3.2 mph 3.2 mph 63 % 0.0 in
20:24 27.8 °F 12.9 °F 1014.8 in WSW 11.1 mph 11.1 mph 40 % 0.0 in
20:29 27.7 °F 12.9 °F 1014.8 in WSW 5.6 mph 5.8 mph 40 % 0.0 in
20:30 22.6 °F 15.4 °F 1015.8 in WSW 3.2 mph 3.2 mph 64 % 0.0 in
20:34 27.6 °F 12.8 °F 1014.8 in SW 7.4 mph 7.4 mph 40 % 0.0 in
20:39 27.5 °F 12.7 °F 1014.8 in SW 9.3 mph 9.3 mph 40 % 0.0 in
20:44 27.4 °F 12.6 °F 1014.8 in WSW 5.0 mph 5.0 mph 40 % 0.0 in
20:45 22.5 °F 15.6 °F 1015.8 in SW 3.2 mph 6.4 mph 65 % 0.0 in
20:49 27.3 °F 12.5 °F 1014.8 in WSW 7.6 mph 7.6 mph 40 % 0.0 in
20:54 27.1 °F 12.3 °F 1014.8 in SW 7.4 mph 7.4 mph 40 % 0.0 in
20:55 22.4 °F 15.5 °F 1014.8 in WSW 3.2 mph 4.8 mph 65 % 0.0 in
20:59 27.0 °F 12.6 °F 1014.8 in West 9.3 mph 9.3 mph 41 % 0.0 in
21:04 26.9 °F 12.9 °F 1014.8 in SW 9.3 mph 9.3 mph 42 % 0.0 in
21:05 22.4 °F 15.7 °F 1014.8 in WSW 1.6 mph 4.8 mph 66 % 0.0 in
21:09 26.7 °F 12.7 °F 1014.8 in SW 7.4 mph 7.4 mph 42 % 0.0 in
21:14 26.6 °F 13.0 °F 1014.8 in SW 7.4 mph 7.4 mph 43 % 0.0 in
21:15 22.3 °F 15.7 °F 1015.8 in WSW 3.2 mph 6.4 mph 66 % 0.0 in
21:19 26.5 °F 12.9 °F 1014.8 in South 13.0 mph 13.0 mph 43 % 0.0 in
21:24 26.3 °F 12.7 °F 1014.8 in SW 9.3 mph 9.3 mph 43 % 0.0 in
21:25 22.3 °F 15.9 °F 1015.8 in WSW 3.2 mph 4.8 mph 67 % 0.0 in
21:29 26.2 °F 13.0 °F 1013.8 in SW 9.3 mph 9.3 mph 44 % 0.0 in
21:34 26.1 °F 12.9 °F 1013.8 in SW 5.6 mph 5.6 mph 44 % 0.0 in
21:35 22.2 °F 15.8 °F 1015.8 in WSW 1.6 mph 4.8 mph 67 % 0.0 in
21:39 26.0 °F 13.2 °F 1013.8 in WSW 11.1 mph 11.1 mph 45 % 0.0 in
21:44 25.9 °F 13.1 °F 1014.8 in SSW 7.6 mph 7.6 mph 45 % 0.0 in
21:45 22.1 °F 15.7 °F 1015.8 in West 3.2 mph 4.8 mph 67 % 0.0 in
21:49 25.8 °F 12.9 °F 1014.8 in SSW 3.7 mph 3.7 mph 45 % 0.0 in
21:54 25.7 °F 13.2 °F 1014.8 in SW 7.4 mph 7.4 mph 46 % 0.0 in
21:59 25.6 °F 13.1 °F 1014.8 in SW 7.4 mph 7.4 mph 46 % 0.0 in
22:04 25.5 °F 13.1 °F 1014.8 in SW 5.6 mph 5.6 mph 46 % 0.0 in
22:05 21.8 °F 15.8 °F 1014.8 in WSW 3.2 mph 4.8 mph 69 % 0.0 in
22:09 25.4 °F 13.3 °F 1014.8 in SW 7.4 mph 7.4 mph 47 % 0.0 in
22:10 21.7 °F 15.8 °F 1014.8 in WSW 3.2 mph 4.8 mph 69 % 0.0 in
22:14 25.3 °F 13.2 °F 1014.8 in SW 7.4 mph 7.4 mph 47 % 0.0 in
22:15 21.7 °F 15.8 °F 1014.8 in SW 3.2 mph 4.8 mph 69 % 0.0 in
22:19 25.2 °F 13.4 °F 1014.8 in WSW 5.8 mph 5.8 mph 48 % 0.0 in
22:24 25.1 °F 13.3 °F 1014.8 in SSW 13.0 mph 13.0 mph 48 % 0.0 in
22:25 21.6 °F 15.4 °F 1014.8 in SW 3.2 mph 3.2 mph 68 % 0.0 in
22:29 25.0 °F 13.6 °F 1014.8 in WSW 5.6 mph 5.6 mph 49 % 0.0 in
22:34 24.9 °F 13.8 °F 1014.8 in West 11.1 mph 11.1 mph 50 % 0.0 in
22:35 21.5 °F 15.3 °F 1014.8 in SW 3.2 mph 4.8 mph 68 % 0.0 in
22:39 24.9 °F 14.1 °F 1014.8 in West 5.6 mph 5.6 mph 51 % 0.0 in
22:44 24.8 °F 14.0 °F 1014.8 in WSW 3.9 mph 3.9 mph 51 % 0.0 in
22:45 21.5 °F 15.1 °F 1014.8 in WSW 1.6 mph 4.8 mph 67 % 0.0 in
22:49 24.8 °F 14.0 °F 1014.8 in SSW 3.7 mph 3.7 mph 51 % 0.0 in
22:54 24.7 °F 14.2 °F 1014.8 in West 3.7 mph 3.7 mph 52 % 0.0 in
22:55 21.6 °F 15.0 °F 1013.8 in WSW 3.2 mph 3.2 mph 66 % 0.0 in
22:59 24.6 °F 14.1 °F 1015.8 in SW 5.6 mph 5.6 mph 52 % 0.0 in
23:04 24.5 °F 14.0 °F 1015.8 in SSW 5.6 mph 5.6 mph 52 % 0.0 in
23:05 21.6 °F 14.7 °F 1013.8 in WSW 3.2 mph 6.4 mph 65 % 0.0 in
23:09 24.4 °F 14.2 °F 1015.8 in WSW 9.3 mph 9.3 mph 53 % 0.0 in
23:14 24.3 °F 14.1 °F 1015.8 in SW 6.4 mph 6.4 mph 53 % 0.0 in
23:15 21.6 °F 14.5 °F 1013.8 in WSW 3.2 mph 4.8 mph 64 % 0.0 in
23:19 24.3 °F 14.4 °F 1015.8 in SW 5.8 mph 5.8 mph 54 % 0.0 in
23:24 24.1 °F 14.2 °F 1015.8 in SW 7.4 mph 7.4 mph 54 % 0.0 in
23:25 21.7 °F 14.3 °F 1013.8 in WSW 4.8 mph 4.8 mph 63 % 0.0 in
23:29 24.1 °F 14.5 °F 1015.8 in West 5.6 mph 5.6 mph 55 % 0.0 in
23:34 24.0 °F 14.4 °F 1015.8 in SW 5.6 mph 5.6 mph 55 % 0.0 in
23:35 21.8 °F 14.2 °F 1013.8 in WSW 3.2 mph 4.8 mph 62 % 0.0 in
23:39 23.9 °F 14.6 °F 1015.8 in SW 2.6 mph 3.9 mph 56 % 0.0 in
23:44 23.8 °F 14.8 °F 1014.8 in WSW 3.9 mph 3.9 mph 57 % 0.0 in
23:45 21.9 °F 14.1 °F 1013.8 in West 4.8 mph 4.8 mph 61 % 0.0 in
23:49 23.8 °F 14.8 °F 1014.8 in WSW 5.6 mph 5.6 mph 57 % 0.0 in
23:54 23.7 °F 14.9 °F 1014.8 in SW 5.6 mph 5.6 mph 58 % 0.0 in
23:55 22.0 °F 13.9 °F 1013.8 in West 3.2 mph 6.4 mph 60 % 0.0 in
23:59 23.6 °F 14.8 °F 1015.8 in WSW 7.4 mph 7.4 mph 58 % 0.0 in
Meteo Sesrovires
Elogis d' Weather Underground - 3.75 mb

Guio original per  Jim McMurry - jmcmurry@mwt.net Adaptat per a la plantilla per  Wim van der Kuil - Leuven-Template.eu

Trobareu la nostra informacio del temps tambe a:

Weather Underground

AWEKAS